createdAt,value
2023-01-09T00:07:31.534Z,8.2
2023-01-09T00:17:33.810Z,8
2023-01-09T00:27:36.425Z,8
2023-01-09T00:37:38.952Z,8
2023-01-09T00:47:40.648Z,7.9
2023-01-09T00:57:42.801Z,7.9
2023-01-09T01:07:44.547Z,7.7
2023-01-09T01:17:46.667Z,7.6
2023-01-09T01:27:49.022Z,7.5
2023-01-09T01:37:51.173Z,7.5
2023-01-09T01:47:52.871Z,7.5
2023-01-09T01:57:55.056Z,7.5
2023-01-09T02:07:56.903Z,7.5
2023-01-09T02:28:01.770Z,7.4
2023-01-09T02:38:04.347Z,7.4
2023-01-09T02:48:06.882Z,7.4
2023-01-09T02:58:09.114Z,7.2
2023-01-09T03:08:11.680Z,7
2023-01-09T03:18:14.089Z,7
2023-01-09T03:28:16.220Z,7.1
2023-01-09T03:38:17.986Z,7.2
2023-01-09T03:48:19.657Z,7.2
2023-01-09T04:08:23.268Z,7.3
2023-01-09T04:18:25.213Z,7.3
2023-01-09T04:28:27.237Z,7.2
2023-01-09T04:38:29.269Z,7.2
2023-01-09T04:48:31.309Z,7.2
2023-01-09T04:58:33.230Z,6.9
2023-01-09T05:08:35.570Z,6.7
2023-01-09T05:18:37.461Z,6.6
2023-01-09T05:28:39.555Z,6.5
2023-01-09T05:38:41.426Z,6.3
2023-01-09T05:48:43.741Z,6.3
2023-01-09T05:58:46.001Z,6.4
2023-01-09T06:08:47.810Z,6.5
2023-01-09T06:18:49.877Z,6.7
2023-01-09T06:28:51.533Z,6.8
2023-01-09T06:38:54.156Z,6.8
2023-01-09T06:48:56.564Z,6.9
2023-01-09T06:58:58.624Z,6.7
2023-01-09T07:09:00.990Z,6.6
2023-01-09T07:19:03.223Z,6.5
2023-01-09T07:29:05.738Z,6.6
2023-01-09T07:39:07.753Z,6.7
2023-01-09T07:49:10.045Z,6.8
2023-01-09T07:59:12.485Z,7
2023-01-09T08:09:14.505Z,7
2023-01-09T08:19:17.024Z,6.9
2023-01-09T08:29:19.224Z,7.3
2023-01-09T08:39:21.499Z,7.3
2023-01-09T08:49:23.770Z,7.3
2023-01-09T08:59:25.943Z,7.2
2023-01-09T09:09:28.323Z,7.2
2023-01-09T09:19:30.952Z,7.2
2023-01-09T09:29:32.753Z,7.2
2023-01-09T09:39:34.801Z,7.2
2023-01-09T10:09:40.977Z,7.4
2023-01-09T10:19:42.733Z,7.6
2023-01-09T10:29:44.841Z,7.8
2023-01-09T10:39:46.726Z,8.1
2023-01-09T10:49:48.734Z,8.3
2023-01-09T10:59:50.725Z,8.3
2023-01-09T11:19:55.654Z,8.3
2023-01-09T11:29:57.424Z,8.3
2023-01-09T11:50:01.859Z,8.3
2023-01-09T12:10:05.967Z,8.1
2023-01-09T12:40:12.193Z,8.3
2023-01-09T12:50:14.077Z,8.2
2023-01-09T13:00:16.557Z,7.9
2023-01-09T13:10:19.238Z,7.9
2023-01-09T13:20:21.755Z,8
2023-01-09T13:30:24.179Z,7.9
2023-01-09T13:40:26.672Z,7.9
2023-01-09T13:50:28.228Z,7.9
2023-01-09T14:00:29.939Z,7.9
2023-01-09T14:10:32.601Z,7.9
2023-01-09T14:20:35.090Z,7.9
2023-01-09T14:30:37.173Z,7.9
2023-01-09T14:50:41.665Z,7.9
2023-01-09T15:20:48.702Z,7.2
2023-01-09T15:50:55.071Z,6.9
2023-01-09T16:21:01.583Z,6.8
2023-01-09T16:41:05.787Z,6.8
2023-01-09T16:51:07.681Z,6.8
2023-01-09T17:01:10.244Z,6.8
2023-01-09T17:11:12.580Z,6.8
2023-01-09T17:41:20.433Z,6.8
2023-01-09T18:41:33.256Z,6.1
2023-01-09T18:51:35.402Z,6
2023-01-09T19:21:42.801Z,6.2
2023-01-09T19:31:44.998Z,6.2
2023-01-09T19:41:46.442Z,6.1
2023-01-09T19:51:48.355Z,6.1
2023-01-09T19:52:10.279Z,6.1
2023-01-09T20:01:57.829Z,6.2
2023-01-09T20:12:00.011Z,6.2
2023-01-09T20:22:02.197Z,6.4
2023-01-09T20:32:04.000Z,6.5
2023-01-09T20:42:06.387Z,6.5
2023-01-09T20:52:08.541Z,6.5
2023-01-09T21:02:10.346Z,6.6
2023-01-09T21:12:12.818Z,6.6
2023-01-09T21:22:14.436Z,6.6
2023-01-09T21:32:16.603Z,6.6
2023-01-09T21:42:18.491Z,6.6
2023-01-09T21:52:20.438Z,6.5
2023-01-09T22:02:22.361Z,6.5
2023-01-09T22:12:24.860Z,6.5
2023-01-09T22:22:26.599Z,6.5
2023-01-09T22:32:28.593Z,6.5
2023-01-09T22:42:31.201Z,6.5
2023-01-09T22:52:32.958Z,6.3
2023-01-09T23:02:35.554Z,6.2
2023-01-09T23:12:37.152Z,6.2
2023-01-09T23:32:41.312Z,6.1
2023-01-09T23:42:43.307Z,6.1
2023-01-09T23:52:45.648Z,6.1
